createdAt,value
2023-05-10T00:00:11.085Z,11.48
2023-05-10T00:01:11.070Z,11.45
2023-05-10T00:02:11.101Z,11.46
2023-05-10T00:03:11.240Z,11.45
2023-05-10T00:04:11.160Z,11.44
2023-05-10T00:05:11.110Z,11.45
2023-05-10T00:06:11.074Z,11.44
2023-05-10T00:07:11.071Z,11.36
2023-05-10T00:08:11.077Z,11.37
2023-05-10T00:09:11.098Z,11.32
2023-05-10T00:10:11.106Z,11.28
2023-05-10T00:11:11.091Z,11.29
2023-05-10T00:12:11.087Z,11.26
2023-05-10T00:13:11.095Z,11.22
2023-05-10T00:14:11.073Z,11.19
2023-05-10T00:15:11.081Z,11.17
2023-05-10T00:16:11.143Z,11.16
2023-05-10T00:17:11.110Z,11.13
2023-05-10T00:18:11.083Z,11.15
2023-05-10T00:19:11.075Z,11.14
2023-05-10T00:20:11.082Z,11.16
2023-05-10T00:21:11.078Z,11.15
2023-05-10T00:22:11.077Z,11.17
2023-05-10T00:23:11.082Z,11.13
2023-05-10T00:24:11.079Z,11.09
2023-05-10T00:25:11.075Z,11.08
2023-05-10T00:26:11.083Z,11.09
2023-05-10T00:27:11.076Z,11.10
2023-05-10T00:28:11.081Z,11.10
2023-05-10T00:29:11.086Z,11.07
2023-05-10T00:30:11.082Z,11.06
2023-05-10T00:31:11.078Z,11.07
2023-05-10T00:32:11.108Z,11.06
2023-05-10T00:33:11.078Z,11.07
2023-05-10T00:34:11.090Z,11.07
2023-05-10T00:35:11.082Z,11.06
2023-05-10T00:36:12.082Z,11.06
2023-05-10T00:37:11.081Z,11.09
2023-05-10T00:38:11.091Z,11.09
2023-05-10T00:39:11.082Z,11.06
2023-05-10T00:40:11.084Z,11.06
2023-05-10T00:41:11.103Z,11.10
2023-05-10T00:42:11.079Z,11.15
2023-05-10T00:43:11.079Z,11.16
2023-05-10T00:44:11.090Z,11.11
2023-05-10T00:45:11.082Z,11.09
2023-05-10T00:46:11.093Z,11.05
2023-05-10T00:47:11.082Z,11.02
2023-05-10T00:48:11.085Z,11.06
2023-05-10T00:49:11.081Z,11.04
2023-05-10T00:50:11.081Z,11.05
2023-05-10T00:51:11.084Z,11.04
2023-05-10T00:52:11.086Z,11.01
2023-05-10T00:53:11.094Z,11.01
2023-05-10T00:54:11.087Z,11.01
2023-05-10T00:55:11.081Z,11.03
2023-05-10T00:56:11.084Z,11.05
2023-05-10T00:57:11.084Z,11.03
2023-05-10T00:58:11.083Z,11.05
2023-05-10T00:59:11.084Z,11.02
2023-05-10T01:00:11.091Z,11.01
2023-05-10T01:01:11.089Z,11.02
2023-05-10T01:02:11.076Z,10.99
2023-05-10T01:03:11.141Z,10.99
2023-05-10T01:04:11.061Z,10.99
2023-05-10T01:05:11.163Z,10.96
2023-05-10T01:06:11.080Z,10.94
2023-05-10T01:07:11.063Z,10.96
2023-05-10T01:08:11.064Z,10.94
2023-05-10T01:09:11.072Z,10.93
2023-05-10T01:10:11.089Z,10.92
2023-05-10T01:11:11.079Z,10.89
2023-05-10T01:12:11.113Z,10.89
2023-05-10T01:13:11.072Z,10.90
2023-05-10T01:14:11.067Z,10.86
2023-05-10T01:15:11.070Z,10.85
2023-05-10T01:16:11.113Z,10.82
2023-05-10T01:17:11.071Z,10.82
2023-05-10T01:18:11.080Z,10.84
2023-05-10T01:19:19.074Z,10.85
2023-05-10T01:20:11.065Z,10.83
2023-05-10T01:21:19.066Z,10.83
2023-05-10T01:22:19.070Z,10.84
2023-05-10T01:23:19.081Z,10.80
2023-05-10T01:24:19.070Z,10.79
2023-05-10T01:25:23.070Z,10.77
2023-05-10T01:26:19.070Z,10.77
2023-05-10T01:27:19.080Z,10.76
2023-05-10T01:28:19.067Z,10.74
2023-05-10T01:29:21.073Z,10.74
2023-05-10T01:30:19.070Z,10.74
2023-05-10T01:31:21.080Z,10.72
2023-05-10T01:32:20.076Z,10.72
2023-05-10T01:33:17.073Z,10.72
2023-05-10T01:34:16.068Z,10.72
2023-05-10T01:35:19.064Z,10.70
2023-05-10T01:36:19.067Z,10.70
2023-05-10T01:37:17.075Z,10.70
2023-05-10T01:38:19.070Z,10.69
2023-05-10T01:39:20.068Z,10.69
2023-05-10T01:40:19.078Z,10.70
2023-05-10T01:41:19.084Z,10.69
2023-05-10T01:42:14.088Z,10.67
2023-05-10T01:43:18.064Z,10.67
2023-05-10T01:44:21.065Z,10.66
2023-05-10T01:45:19.070Z,10.67
2023-05-10T01:46:21.083Z,10.64
2023-05-10T01:47:19.066Z,10.63
2023-05-10T01:48:12.131Z,10.62
2023-05-10T01:49:12.069Z,10.60
2023-05-10T01:50:16.399Z,10.57
2023-05-10T01:51:11.064Z,10.57
2023-05-10T01:52:12.064Z,10.54
2023-05-10T01:53:11.074Z,10.49
2023-05-10T01:54:11.061Z,10.45
2023-05-10T01:55:16.108Z,10.41
2023-05-10T01:56:11.065Z,10.43
2023-05-10T01:57:11.073Z,10.44
2023-05-10T01:58:13.064Z,10.46
2023-05-10T01:59:16.062Z,10.46
2023-05-10T02:00:11.083Z,10.43
2023-05-10T02:01:11.111Z,10.44
2023-05-10T02:02:11.072Z,10.45
2023-05-10T02:03:11.136Z,10.44
2023-05-10T02:04:11.137Z,10.45
2023-05-10T02:05:12.064Z,10.45
2023-05-10T02:06:11.072Z,10.42
2023-05-10T02:07:11.062Z,10.40
2023-05-10T02:08:11.065Z,10.41
2023-05-10T02:09:11.070Z,10.39
2023-05-10T02:10:11.068Z,10.39
2023-05-10T02:11:13.066Z,10.37
2023-05-10T02:12:11.066Z,10.36
2023-05-10T02:13:11.114Z,10.37
2023-05-10T02:14:12.066Z,10.36
2023-05-10T02:15:12.073Z,10.34
2023-05-10T02:16:11.110Z,10.35
2023-05-10T02:17:11.064Z,10.32
2023-05-10T02:18:11.069Z,10.34
2023-05-10T02:19:11.089Z,10.31
2023-05-10T02:20:11.070Z,10.30
2023-05-10T02:21:11.068Z,10.30
2023-05-10T02:22:11.067Z,10.31
2023-05-10T02:23:11.073Z,10.32
2023-05-10T02:24:11.074Z,10.32
2023-05-10T02:25:12.069Z,10.35
2023-05-10T02:26:11.071Z,10.33
2023-05-10T02:27:11.072Z,10.34
2023-05-10T02:28:11.073Z,10.33
2023-05-10T02:29:11.077Z,10.28
2023-05-10T02:30:11.069Z,10.27
2023-05-10T02:31:11.071Z,10.26
2023-05-10T02:32:11.127Z,10.21
2023-05-10T02:33:11.071Z,10.20
2023-05-10T02:34:11.074Z,10.16
2023-05-10T02:35:11.066Z,10.16
2023-05-10T02:36:11.070Z,10.14
2023-05-10T02:37:11.095Z,10.12
2023-05-10T02:38:11.071Z,10.14
2023-05-10T02:39:14.072Z,10.13
2023-05-10T02:40:11.075Z,10.13
2023-05-10T02:41:11.078Z,10.10
2023-05-10T02:42:14.075Z,10.11
2023-05-10T02:43:13.074Z,10.08
2023-05-10T02:44:11.071Z,10.02
2023-05-10T02:45:12.085Z,10.02
2023-05-10T02:46:11.116Z,10.02
2023-05-10T02:47:11.081Z,10.00
2023-05-10T02:48:11.087Z,10.01
2023-05-10T02:49:11.077Z,10.01
2023-05-10T02:50:11.073Z,10.00
2023-05-10T02:51:12.083Z,10.01
2023-05-10T02:52:11.079Z,10.02
2023-05-10T02:53:15.074Z,9.97
2023-05-10T02:54:13.089Z,9.98
2023-05-10T02:55:12.080Z,9.97
2023-05-10T02:56:21.081Z,9.96
2023-05-10T02:57:14.074Z,9.96
2023-05-10T02:58:11.092Z,9.98
2023-05-10T02:59:11.075Z,9.99
2023-05-10T03:00:11.081Z,9.98
2023-05-10T03:01:11.095Z,9.94
2023-05-10T03:02:11.072Z,9.87
2023-05-10T03:03:11.081Z,9.91
2023-05-10T03:04:11.122Z,9.91
2023-05-10T03:05:11.075Z,9.93
2023-05-10T03:06:11.076Z,9.88
2023-05-10T03:07:11.085Z,9.85
2023-05-10T03:08:11.080Z,9.84
2023-05-10T03:09:11.073Z,9.78
2023-05-10T03:10:11.080Z,9.76
2023-05-10T03:11:21.079Z,9.73
2023-05-10T03:12:21.078Z,9.74
2023-05-10T03:13:21.157Z,9.73
2023-05-10T03:14:19.095Z,9.69
2023-05-10T03:15:21.090Z,9.71
2023-05-10T03:16:21.103Z,9.71
2023-05-10T03:17:18.078Z,9.73
2023-05-10T03:18:17.088Z,9.74
2023-05-10T03:19:19.084Z,9.70
2023-05-10T03:20:12.086Z,9.73
2023-05-10T03:21:12.073Z,9.75
2023-05-10T03:22:13.082Z,9.76
2023-05-10T03:23:19.111Z,9.75
2023-05-10T03:24:13.091Z,9.76
2023-05-10T03:25:11.076Z,9.77
2023-05-10T03:26:11.085Z,9.75
2023-05-10T03:27:11.081Z,9.75
2023-05-10T03:28:11.077Z,9.76
2023-05-10T03:29:11.079Z,9.77
2023-05-10T03:30:13.083Z,9.76
2023-05-10T03:31:11.100Z,9.78
2023-05-10T03:32:11.083Z,9.78
2023-05-10T03:33:11.079Z,9.79
2023-05-10T03:34:11.075Z,9.80
2023-05-10T03:35:11.080Z,9.78
2023-05-10T03:36:11.083Z,9.78
2023-05-10T03:37:11.084Z,9.77
2023-05-10T03:38:11.082Z,9.77
2023-05-10T03:39:11.089Z,9.76
2023-05-10T03:40:11.090Z,9.75
2023-05-10T03:41:11.090Z,9.75
2023-05-10T03:42:11.089Z,9.72
2023-05-10T03:43:11.085Z,9.73
2023-05-10T03:44:11.084Z,9.73
2023-05-10T03:45:11.135Z,9.74
2023-05-10T03:46:11.100Z,9.71
2023-05-10T03:47:11.081Z,9.71
2023-05-10T03:48:11.112Z,9.68
2023-05-10T03:49:11.082Z,9.68
2023-05-10T03:50:11.087Z,9.69
2023-05-10T03:51:11.092Z,9.69
2023-05-10T03:52:11.096Z,9.69
2023-05-10T03:53:11.089Z,9.68
2023-05-10T03:54:11.093Z,9.69
2023-05-10T03:55:11.083Z,9.66
2023-05-10T03:56:11.085Z,9.64
2023-05-10T03:57:11.100Z,9.60
2023-05-10T03:58:13.087Z,9.55
2023-05-10T03:59:12.090Z,9.51
2023-05-10T04:00:11.083Z,9.47
2023-05-10T04:01:11.075Z,9.42
2023-05-10T04:02:11.080Z,9.40
2023-05-10T04:03:11.205Z,9.42
2023-05-10T04:04:11.114Z,9.43
2023-05-10T04:05:11.067Z,9.44
2023-05-10T04:06:11.108Z,9.48
2023-05-10T04:07:11.067Z,9.50
2023-05-10T04:08:11.071Z,9.49
2023-05-10T04:09:11.087Z,9.49
2023-05-10T04:10:11.069Z,9.53
2023-05-10T04:11:14.063Z,9.52
2023-05-10T04:12:11.229Z,9.52
2023-05-10T04:13:11.166Z,9.53
2023-05-10T04:14:11.064Z,9.53
2023-05-10T04:15:11.064Z,9.53
2023-05-10T04:16:11.076Z,9.53
2023-05-10T04:17:11.092Z,9.52
2023-05-10T04:18:11.153Z,9.54
2023-05-10T04:19:11.078Z,9.55
2023-05-10T04:20:11.069Z,9.53
2023-05-10T04:21:15.070Z,9.53
2023-05-10T04:22:11.068Z,9.55
2023-05-10T04:23:11.067Z,9.56
2023-05-10T04:24:11.170Z,9.53
2023-05-10T04:25:11.066Z,9.52
2023-05-10T04:26:11.067Z,9.53
2023-05-10T04:27:11.065Z,9.52
2023-05-10T04:28:11.067Z,9.52
2023-05-10T04:29:11.076Z,9.54
2023-05-10T04:30:11.071Z,9.52
2023-05-10T04:31:11.095Z,9.53
2023-05-10T04:32:11.078Z,9.54
2023-05-10T04:33:11.074Z,9.54
2023-05-10T04:34:11.069Z,9.55
2023-05-10T04:35:11.116Z,9.56
2023-05-10T04:36:11.071Z,9.56
2023-05-10T04:37:11.066Z,9.54
2023-05-10T04:38:11.072Z,9.53
2023-05-10T04:39:11.066Z,9.54
2023-05-10T04:40:11.068Z,9.54
2023-05-10T04:41:11.073Z,9.52
2023-05-10T04:42:11.067Z,9.53
2023-05-10T04:43:11.066Z,9.52
2023-05-10T04:44:11.067Z,9.47
2023-05-10T04:45:11.068Z,9.48
2023-05-10T04:46:11.117Z,9.45
2023-05-10T04:47:12.597Z,9.46
2023-05-10T04:48:11.069Z,9.47
2023-05-10T04:49:11.067Z,9.43
2023-05-10T04:50:11.077Z,9.41
2023-05-10T04:51:11.073Z,9.41
2023-05-10T04:52:11.061Z,9.39
2023-05-10T04:53:11.093Z,9.40
2023-05-10T04:54:11.080Z,9.44
2023-05-10T04:55:12.085Z,9.50
2023-05-10T04:56:11.064Z,9.53
2023-05-10T04:57:11.075Z,9.59
2023-05-10T04:58:11.078Z,9.57
2023-05-10T04:59:11.073Z,9.52
2023-05-10T05:00:11.080Z,9.58
2023-05-10T05:01:11.130Z,9.61
2023-05-10T05:02:11.067Z,9.67
2023-05-10T05:03:11.228Z,9.69
2023-05-10T05:04:11.065Z,9.74
2023-05-10T05:05:11.071Z,9.76
2023-05-10T05:06:11.068Z,9.82
2023-05-10T05:07:11.076Z,9.83
2023-05-10T05:08:11.082Z,9.85
2023-05-10T05:09:11.100Z,9.89
2023-05-10T05:10:11.075Z,9.94
2023-05-10T05:11:11.077Z,9.90
2023-05-10T05:12:11.072Z,9.88
2023-05-10T05:13:11.112Z,9.86
2023-05-10T05:14:11.066Z,9.84
2023-05-10T05:15:11.088Z,9.88
2023-05-10T05:16:11.137Z,9.87
2023-05-10T05:17:11.078Z,9.92
2023-05-10T05:18:11.196Z,9.97
2023-05-10T05:19:11.077Z,10.02
2023-05-10T05:20:11.071Z,10.05
2023-05-10T05:21:15.073Z,10.11
2023-05-10T05:22:11.082Z,10.16
2023-05-10T05:23:11.073Z,10.21
2023-05-10T05:24:11.086Z,10.26
2023-05-10T05:25:11.087Z,10.31
2023-05-10T05:26:11.078Z,10.35
2023-05-10T05:27:11.069Z,10.38
2023-05-10T05:28:11.081Z,10.41
2023-05-10T05:29:11.089Z,10.44
2023-05-10T05:30:11.072Z,10.44
2023-05-10T05:31:11.177Z,10.41
2023-05-10T05:32:11.169Z,10.44
2023-05-10T05:33:11.130Z,10.47
2023-05-10T05:34:11.084Z,10.48
2023-05-10T05:35:11.079Z,10.47
2023-05-10T05:36:11.075Z,10.50
2023-05-10T05:37:13.072Z,10.51
2023-05-10T05:38:11.075Z,10.54
2023-05-10T05:39:11.070Z,10.52
2023-05-10T05:40:13.083Z,10.55
2023-05-10T05:41:11.079Z,10.57
2023-05-10T05:42:11.068Z,10.59
2023-05-10T05:43:11.081Z,10.62
2023-05-10T05:44:11.101Z,10.62
2023-05-10T05:45:11.077Z,10.64
2023-05-10T05:46:11.128Z,10.66
2023-05-10T05:47:11.076Z,10.65
2023-05-10T05:48:11.129Z,10.68
2023-05-10T05:49:11.078Z,10.70
2023-05-10T05:50:11.095Z,10.71
2023-05-10T05:51:11.076Z,10.75
2023-05-10T05:52:11.067Z,10.78
2023-05-10T05:53:11.153Z,10.80
2023-05-10T05:54:11.075Z,10.82
2023-05-10T05:55:11.069Z,10.83
2023-05-10T05:56:11.077Z,10.86
2023-05-10T05:57:11.075Z,10.87
2023-05-10T05:58:11.078Z,10.91
2023-05-10T05:59:11.080Z,10.93
2023-05-10T06:00:11.077Z,10.95
2023-05-10T06:01:11.091Z,10.94
2023-05-10T06:02:11.113Z,10.95
2023-05-10T06:03:11.159Z,10.95
2023-05-10T06:04:11.121Z,10.90
2023-05-10T06:05:11.081Z,10.90
2023-05-10T06:06:11.077Z,10.90
2023-05-10T06:07:11.075Z,10.93
2023-05-10T06:08:11.073Z,10.90
2023-05-10T06:09:11.079Z,10.92
2023-05-10T06:10:11.082Z,10.94
2023-05-10T06:11:11.077Z,10.93
2023-05-10T06:12:11.078Z,10.92
2023-05-10T06:13:11.149Z,10.97
2023-05-10T06:14:11.078Z,10.97
2023-05-10T06:15:11.093Z,11.01
2023-05-10T06:16:11.121Z,11.06
2023-05-10T06:17:11.082Z,11.09
2023-05-10T06:18:11.155Z,11.10
2023-05-10T06:19:11.080Z,11.12
2023-05-10T06:20:11.085Z,11.17
2023-05-10T06:21:11.096Z,11.15
2023-05-10T06:22:11.080Z,11.17
2023-05-10T06:23:11.078Z,11.16
2023-05-10T06:24:11.080Z,11.20
2023-05-10T06:25:11.126Z,11.23
2023-05-10T06:26:11.076Z,11.30
2023-05-10T06:27:11.090Z,11.34
2023-05-10T06:28:11.083Z,11.35
2023-05-10T06:29:11.087Z,11.35
2023-05-10T06:30:13.468Z,11.39
2023-05-10T06:31:11.088Z,11.37
2023-05-10T06:32:11.079Z,11.39
2023-05-10T06:33:11.111Z,11.39
2023-05-10T06:34:11.079Z,11.40
2023-05-10T06:35:11.091Z,11.39
2023-05-10T06:36:11.095Z,11.35
2023-05-10T06:37:11.081Z,11.35
2023-05-10T06:38:11.082Z,11.37
2023-05-10T06:39:11.083Z,11.40
2023-05-10T06:40:11.084Z,11.43
2023-05-10T06:41:11.081Z,11.45
2023-05-10T06:42:11.086Z,11.44
2023-05-10T06:43:11.081Z,11.48
2023-05-10T06:44:11.085Z,11.49
2023-05-10T06:45:11.088Z,11.50
2023-05-10T06:46:11.131Z,11.53
2023-05-10T06:47:11.080Z,11.52
2023-05-10T06:48:11.147Z,11.50
2023-05-10T06:49:11.091Z,11.52
2023-05-10T06:50:11.092Z,11.57
2023-05-10T06:51:11.085Z,11.61
2023-05-10T06:52:11.083Z,11.62
2023-05-10T06:53:11.096Z,11.65
2023-05-10T06:54:11.091Z,11.71
2023-05-10T06:55:11.087Z,11.75
2023-05-10T06:56:11.089Z,11.77
2023-05-10T06:57:23.375Z,11.80
2023-05-10T06:58:13.105Z,11.82
2023-05-10T06:59:11.102Z,11.87
2023-05-10T07:00:11.105Z,11.91
2023-05-10T07:01:11.276Z,11.97
2023-05-10T07:02:11.124Z,11.98
2023-05-10T07:03:12.174Z,12.04
2023-05-10T07:04:11.075Z,12.08
2023-05-10T07:05:11.059Z,12.12
2023-05-10T07:06:21.711Z,12.16
2023-05-10T07:07:13.039Z,12.23
2023-05-10T07:08:11.065Z,12.31
2023-05-10T07:09:11.062Z,12.38
2023-05-10T07:10:11.071Z,12.44
2023-05-10T07:11:11.065Z,12.50
2023-05-10T07:12:12.743Z,12.56
2023-05-10T07:13:11.128Z,12.64
2023-05-10T07:14:11.069Z,12.64
2023-05-10T07:15:11.065Z,12.71
2023-05-10T07:16:11.133Z,12.74
2023-05-10T07:17:11.147Z,12.82
2023-05-10T07:18:11.134Z,12.86
2023-05-10T07:19:11.064Z,12.91
2023-05-10T07:20:11.073Z,12.96
2023-05-10T07:21:11.100Z,12.95
2023-05-10T07:22:11.066Z,12.92
2023-05-10T07:23:11.067Z,12.86
2023-05-10T07:24:11.063Z,12.85
2023-05-10T07:25:11.068Z,12.79
2023-05-10T07:26:11.075Z,12.84
2023-05-10T07:27:11.063Z,12.86
2023-05-10T07:28:11.072Z,12.84
2023-05-10T07:29:11.077Z,12.87
2023-05-10T07:30:11.072Z,12.88
2023-05-10T07:31:11.201Z,12.94
2023-05-10T07:32:11.122Z,12.95
2023-05-10T07:33:11.137Z,12.98
2023-05-10T07:34:11.077Z,13.02
2023-05-10T07:35:11.090Z,13.10
2023-05-10T07:36:11.069Z,13.10
2023-05-10T07:37:11.084Z,13.10
2023-05-10T07:38:11.074Z,13.06
2023-05-10T07:39:12.731Z,13.10
2023-05-10T07:40:13.034Z,13.15
2023-05-10T07:41:11.069Z,13.09
2023-05-10T07:42:11.078Z,13.12
2023-05-10T07:43:11.065Z,13.20
2023-05-10T07:44:11.065Z,13.28
2023-05-10T07:45:11.071Z,13.32
2023-05-10T07:46:11.197Z,13.38
2023-05-10T07:47:11.084Z,13.40
2023-05-10T07:48:11.068Z,13.36
2023-05-10T07:49:11.067Z,13.43
2023-05-10T07:50:11.101Z,13.50
2023-05-10T07:51:12.080Z,13.51
2023-05-10T07:52:11.093Z,13.60
2023-05-10T07:53:11.076Z,13.64
2023-05-10T07:54:11.078Z,13.76
2023-05-10T07:55:11.071Z,13.77
2023-05-10T07:56:19.071Z,13.89
2023-05-10T07:57:11.066Z,14.02
2023-05-10T07:58:11.065Z,14.14
2023-05-10T07:59:12.819Z,14.20
2023-05-10T08:00:13.095Z,14.26
2023-05-10T08:01:11.081Z,14.30
2023-05-10T08:02:11.131Z,14.39
2023-05-10T08:03:11.173Z,14.44
2023-05-10T08:04:11.131Z,14.54
2023-05-10T08:05:11.073Z,14.62
2023-05-10T08:06:11.085Z,14.64
2023-05-10T08:07:11.125Z,14.75
2023-05-10T08:08:11.076Z,14.84
2023-05-10T08:09:11.100Z,14.90
2023-05-10T08:10:11.065Z,14.98
2023-05-10T08:11:11.067Z,15.03
2023-05-10T08:12:11.076Z,14.92
2023-05-10T08:13:11.071Z,14.90
2023-05-10T08:14:11.071Z,14.78
2023-05-10T08:15:11.080Z,14.89
2023-05-10T08:16:11.093Z,14.93
2023-05-10T08:17:11.069Z,14.93
2023-05-10T08:18:11.108Z,14.90
2023-05-10T08:19:11.100Z,14.91
2023-05-10T08:20:11.070Z,14.86
2023-05-10T08:21:11.153Z,14.86
2023-05-10T08:22:11.073Z,14.92
2023-05-10T08:23:11.067Z,14.86
2023-05-10T08:24:11.071Z,14.82
2023-05-10T08:25:11.065Z,14.82
2023-05-10T08:26:11.069Z,14.80
2023-05-10T08:27:11.076Z,14.80
2023-05-10T08:28:11.962Z,14.82
2023-05-10T08:29:11.069Z,14.82
2023-05-10T08:30:11.077Z,14.84
2023-05-10T08:31:11.079Z,14.90
2023-05-10T08:32:11.077Z,14.92
2023-05-10T08:33:11.181Z,14.95
2023-05-10T08:34:11.070Z,14.96
2023-05-10T08:35:11.076Z,15.02
2023-05-10T08:36:11.074Z,14.99
2023-05-10T08:37:11.068Z,14.97
2023-05-10T08:38:11.073Z,14.87
2023-05-10T08:39:22.806Z,14.79
2023-05-10T08:40:14.071Z,14.80
2023-05-10T08:41:11.083Z,14.78
2023-05-10T08:42:11.080Z,14.59
2023-05-10T08:43:11.091Z,14.56
2023-05-10T08:44:11.082Z,14.55
2023-05-10T08:45:11.081Z,14.55
2023-05-10T08:46:11.117Z,14.51
2023-05-10T08:47:11.204Z,14.50
2023-05-10T08:48:11.179Z,14.50
2023-05-10T08:49:12.074Z,14.51
2023-05-10T08:50:11.079Z,14.56
2023-05-10T08:51:11.091Z,14.50
2023-05-10T08:52:11.085Z,14.41
2023-05-10T08:53:14.076Z,14.38
2023-05-10T08:54:11.079Z,14.47
2023-05-10T08:55:11.084Z,14.44
2023-05-10T08:56:11.124Z,14.43
2023-05-10T08:57:11.084Z,14.47
2023-05-10T08:58:11.100Z,14.42
2023-05-10T08:59:11.074Z,14.32
2023-05-10T09:00:11.078Z,14.35
2023-05-10T09:01:11.107Z,14.30
2023-05-10T09:02:12.082Z,14.38
2023-05-10T09:03:11.088Z,14.50
2023-05-10T09:04:11.141Z,14.46
2023-05-10T09:05:11.134Z,14.53
2023-05-10T09:06:12.082Z,14.61
2023-05-10T09:07:11.076Z,14.69
2023-05-10T09:08:11.084Z,14.83
2023-05-10T09:09:11.096Z,14.86
2023-05-10T09:10:11.105Z,14.94
2023-05-10T09:11:11.080Z,15.03
2023-05-10T09:12:11.093Z,15.16
2023-05-10T09:13:11.089Z,15.26
2023-05-10T09:14:11.116Z,15.32
2023-05-10T09:15:11.091Z,15.34
2023-05-10T09:16:21.370Z,15.40
2023-05-10T09:17:13.133Z,15.47
2023-05-10T09:18:11.128Z,15.45
2023-05-10T09:19:11.202Z,15.46
2023-05-10T09:20:11.080Z,15.47
2023-05-10T09:21:11.091Z,15.50
2023-05-10T09:22:11.082Z,15.46
2023-05-10T09:23:11.096Z,15.46
2023-05-10T09:24:11.103Z,15.55
2023-05-10T09:25:13.091Z,15.62
2023-05-10T09:26:11.108Z,15.69
2023-05-10T09:27:11.092Z,15.78
2023-05-10T09:28:11.085Z,15.77
2023-05-10T09:29:11.082Z,15.79
2023-05-10T09:30:11.089Z,15.65
2023-05-10T09:31:11.098Z,15.74
2023-05-10T09:32:11.098Z,15.83
2023-05-10T09:33:11.089Z,15.89
2023-05-10T09:34:11.081Z,15.89
2023-05-10T09:35:13.093Z,15.90
2023-05-10T09:36:11.089Z,15.88
2023-05-10T09:37:11.080Z,15.86
2023-05-10T09:38:11.258Z,15.88
2023-05-10T09:39:11.086Z,15.91
2023-05-10T09:40:19.088Z,15.85
2023-05-10T09:41:17.086Z,15.88
2023-05-10T09:42:11.089Z,15.83
2023-05-10T09:43:11.097Z,15.83
2023-05-10T09:44:11.088Z,15.71
2023-05-10T09:45:11.085Z,15.79
2023-05-10T09:46:11.117Z,15.88
2023-05-10T09:47:11.081Z,15.72
2023-05-10T09:48:11.134Z,15.84
2023-05-10T09:49:14.095Z,15.81
2023-05-10T09:50:11.086Z,15.81
2023-05-10T09:51:11.091Z,15.80
2023-05-10T09:52:11.094Z,15.77
2023-05-10T09:53:11.082Z,15.78
2023-05-10T09:54:13.102Z,15.77
2023-05-10T09:55:11.090Z,15.69
2023-05-10T09:56:11.088Z,15.79
2023-05-10T09:57:19.102Z,15.73
2023-05-10T09:58:14.102Z,15.73
2023-05-10T09:59:11.086Z,15.61
2023-05-10T10:00:11.102Z,15.57
2023-05-10T10:01:13.139Z,15.56
2023-05-10T10:02:11.070Z,15.57
2023-05-10T10:03:15.112Z,15.57
2023-05-10T10:04:11.079Z,15.59
2023-05-10T10:05:11.086Z,15.66
2023-05-10T10:06:18.887Z,15.67
2023-05-10T10:07:13.082Z,15.67
2023-05-10T10:08:11.078Z,15.70
2023-05-10T10:09:11.063Z,15.73
2023-05-10T10:10:11.072Z,15.81
2023-05-10T10:11:11.068Z,15.83
2023-05-10T10:12:11.066Z,15.86
2023-05-10T10:13:11.067Z,15.92
2023-05-10T10:14:12.072Z,15.93
2023-05-10T10:15:11.085Z,16.00
2023-05-10T10:16:11.123Z,15.96
2023-05-10T10:17:11.079Z,16.05
2023-05-10T10:18:13.068Z,16.09
2023-05-10T10:19:11.069Z,16.11
2023-05-10T10:20:12.266Z,16.05
2023-05-10T10:21:11.068Z,16.04
2023-05-10T10:22:11.072Z,16.05
2023-05-10T10:23:11.071Z,16.01
2023-05-10T10:24:11.070Z,16.02
2023-05-10T10:25:11.067Z,15.97
2023-05-10T10:26:11.075Z,15.97
2023-05-10T10:27:19.069Z,15.99
2023-05-10T10:28:19.071Z,15.94
2023-05-10T10:29:21.079Z,15.91
2023-05-10T10:30:20.072Z,15.93
2023-05-10T10:31:21.132Z,15.92
2023-05-10T10:32:19.072Z,15.90
2023-05-10T10:33:27.822Z,15.76
2023-05-10T10:34:14.060Z,15.79
2023-05-10T10:35:11.085Z,15.70
2023-05-10T10:36:11.067Z,15.67
2023-05-10T10:37:11.075Z,15.61
2023-05-10T10:38:11.073Z,15.51
2023-05-10T10:39:12.074Z,15.34
2023-05-10T10:40:19.076Z,15.26
2023-05-10T10:41:17.079Z,15.26
2023-05-10T10:42:11.077Z,15.15
2023-05-10T10:43:19.078Z,15.20
2023-05-10T10:44:19.086Z,15.20
2023-05-10T10:45:15.367Z,15.19
2023-05-10T10:46:17.150Z,15.24
2023-05-10T10:47:24.211Z,15.23
2023-05-10T10:48:19.072Z,15.19
2023-05-10T10:49:13.077Z,15.24
2023-05-10T10:50:11.076Z,15.24
2023-05-10T10:51:12.789Z,15.23
2023-05-10T10:52:21.099Z,15.33
2023-05-10T10:53:13.164Z,15.41
2023-05-10T10:54:13.100Z,15.45
2023-05-10T10:55:19.400Z,15.47
2023-05-10T10:56:13.079Z,15.46
2023-05-10T10:57:13.074Z,15.50
2023-05-10T10:58:11.124Z,15.54
2023-05-10T10:59:11.075Z,15.55
2023-05-10T11:00:19.077Z,15.56
2023-05-10T11:01:17.160Z,15.53
2023-05-10T11:02:11.076Z,15.59
2023-05-10T11:03:13.127Z,15.65
2023-05-10T11:04:18.167Z,15.66
2023-05-10T11:05:19.096Z,15.64
2023-05-10T11:06:11.079Z,15.66
2023-05-10T11:07:17.073Z,15.69
2023-05-10T11:08:21.080Z,15.58
2023-05-10T11:09:11.083Z,15.57
2023-05-10T11:10:11.094Z,15.56
2023-05-10T11:11:14.076Z,15.52
2023-05-10T11:12:12.073Z,15.53
2023-05-10T11:13:11.077Z,15.53
2023-05-10T11:14:11.083Z,15.53
2023-05-10T11:15:11.076Z,15.51
2023-05-10T11:16:20.238Z,15.54
2023-05-10T11:17:19.092Z,15.60
2023-05-10T11:18:17.095Z,15.67
2023-05-10T11:19:11.110Z,15.76
2023-05-10T11:20:11.084Z,15.84
2023-05-10T11:21:11.084Z,15.86
2023-05-10T11:22:15.071Z,15.96
2023-05-10T11:23:15.077Z,15.93
2023-05-10T11:24:15.085Z,15.92
2023-05-10T11:25:11.077Z,15.91
2023-05-10T11:26:14.078Z,16.05
2023-05-10T11:27:11.084Z,16.12
2023-05-10T11:28:11.078Z,16.14
2023-05-10T11:29:11.073Z,16.27
2023-05-10T11:30:12.078Z,16.32
2023-05-10T11:31:11.086Z,16.40
2023-05-10T11:32:12.075Z,16.48
2023-05-10T11:33:11.082Z,16.47
2023-05-10T11:34:11.079Z,16.50
2023-05-10T11:35:13.076Z,16.60
2023-05-10T11:36:15.081Z,16.72
2023-05-10T11:37:11.086Z,16.72
2023-05-10T11:38:11.080Z,16.68
2023-05-10T11:39:11.087Z,16.65
2023-05-10T11:40:11.139Z,16.70
2023-05-10T11:41:13.078Z,16.69
2023-05-10T11:42:11.086Z,16.75
2023-05-10T11:43:11.092Z,17.05
2023-05-10T11:44:11.084Z,17.33
2023-05-10T11:45:11.081Z,17.49
2023-05-10T11:46:13.153Z,17.71
2023-05-10T11:47:11.088Z,17.94
2023-05-10T11:48:11.151Z,18.03
2023-05-10T11:49:11.114Z,18.35
2023-05-10T11:50:11.087Z,18.38
2023-05-10T11:51:13.081Z,18.43
2023-05-10T11:52:11.082Z,18.27
2023-05-10T11:53:11.095Z,18.23
2023-05-10T11:54:11.086Z,18.19
2023-05-10T11:55:11.097Z,18.13
2023-05-10T11:56:11.086Z,18.05
2023-05-10T11:57:11.080Z,17.94
2023-05-10T11:58:11.089Z,17.84
2023-05-10T11:59:11.084Z,17.78
2023-05-10T12:00:11.088Z,17.58
2023-05-10T12:01:11.084Z,17.51
2023-05-10T12:02:11.086Z,17.48
2023-05-10T12:03:11.264Z,17.42
2023-05-10T12:04:11.269Z,17.33
2023-05-10T12:05:11.151Z,17.24
2023-05-10T12:06:11.080Z,17.18
2023-05-10T12:07:11.096Z,17.17
2023-05-10T12:08:15.084Z,17.16
2023-05-10T12:09:11.107Z,17.31
2023-05-10T12:10:13.125Z,17.38
2023-05-10T12:11:11.097Z,17.53
2023-05-10T12:12:11.104Z,17.71
2023-05-10T12:13:15.111Z,17.77
2023-05-10T12:14:11.090Z,17.94
2023-05-10T12:15:17.087Z,17.99
2023-05-10T12:16:21.164Z,17.96
2023-05-10T12:17:14.092Z,18.05
2023-05-10T12:18:15.160Z,18.07
2023-05-10T12:19:11.257Z,18.11
2023-05-10T12:20:15.353Z,18.19
2023-05-10T12:21:11.090Z,18.19
2023-05-10T12:22:11.095Z,18.23
2023-05-10T12:23:11.101Z,18.28
2023-05-10T12:24:11.094Z,18.46
2023-05-10T12:25:11.097Z,18.36
2023-05-10T12:26:12.084Z,18.28
2023-05-10T12:27:12.090Z,18.20
2023-05-10T12:28:11.089Z,18.13
2023-05-10T12:29:15.087Z,17.82
2023-05-10T12:30:11.092Z,17.71
2023-05-10T12:31:11.092Z,17.56
2023-05-10T12:32:11.217Z,17.57
2023-05-10T12:33:13.228Z,17.52
2023-05-10T12:34:11.092Z,17.48
2023-05-10T12:35:11.094Z,17.41
2023-05-10T12:36:11.099Z,17.26
2023-05-10T12:37:11.094Z,17.24
2023-05-10T12:38:19.094Z,17.36
2023-05-10T12:39:11.093Z,17.40
2023-05-10T12:40:11.101Z,17.57
2023-05-10T12:41:11.122Z,17.59
2023-05-10T12:42:11.103Z,17.77
2023-05-10T12:43:11.100Z,18.02
2023-05-10T12:44:11.094Z,18.17
2023-05-10T12:45:11.096Z,18.42
2023-05-10T12:46:13.151Z,18.61
2023-05-10T12:47:11.149Z,18.65
2023-05-10T12:48:11.153Z,18.67
2023-05-10T12:49:11.096Z,18.68
2023-05-10T12:50:11.123Z,18.62
2023-05-10T12:51:11.100Z,18.48
2023-05-10T12:52:11.115Z,18.33
2023-05-10T12:53:11.093Z,18.20
2023-05-10T12:54:11.103Z,18.15
2023-05-10T12:55:11.101Z,17.95
2023-05-10T12:56:11.134Z,17.69
2023-05-10T12:57:11.102Z,17.72